Airfield :
LOGIN :

Register | Disclaimer

   EN    FR    IT 

 










Legend :    VFR   Marginal VFR   IFR   Intensive IFR   Very Intensive IFR
Visi :
Ceiling :
>= 8 km
>= 3000ft
5 to 8 km
1000 to 3000 ft
1500m to 5 km
500 to 1000 ft
800 to 1500m
200 to 500 ft
< 800m
< 200 ft
Symbols :   Thunderstorms  Fog  Heavy snow  Heavy precipitations  Wind > 20 kt
SIGMETs :     Misc.  Thunderstorms  Icing  Turbulence  Mountain Waves  Volcanic Ashes







- Airport Elevation : 464 ft
- IATA code : EVX
- Download approach charts


LFOE - Evreux

CURRENT METAR :
  • 181300Z AUTO 24013KT CAVOK 25/12 Q1015 NOSIG

EXPIRED METARs :
  • 181230Z AUTO 23013KT 9999 SCT043 OVC220 25/12 Q1015 NOSIG
  • 181200Z AUTO 23011KT 200V270 9999 FEW042 BKN210 24/13 Q1015 NOSIG
  • 181130Z AUTO 22012KT 180V250 9999 SCT037 24/12 Q1015 NOSIG
  • 181100Z AUTO 21011KT 170V250 9999 SCT033 BKN190 23/14 Q1015 NOSIG
  • 181030Z AUTO 21013KT 180V240 9999 SCT030 SCT190 23/14 Q1015 NOSIG

Expired Forecast.
No reported NOTAMs for that airfield.



MET'MAP, your aeronautical weather chart ! - Copyright ORBIFLY December 2007 - Disclaimer

ORBIFLY MET'MAP TEAM :

Programming & Development : Alexandra Zaïnal
Concept & Development : Baudouin d'Aumeries
Co-Development & Prog : Marc-Olivier Méhu
Technical & hardware support : Manuel Goepfert

Contact : metmap@orbifly.com




SOURCES & CREDITS :

   NOAA